Time;durP1;ratioP1;P1;durP2;ratioP2;P2;SDS_P1;SDS_P2;PMS_P1;PMS_P2;Temp;Humidity;BMP_temperature;BMP_pressure;BME280_temperature;BME280_humidity;BME280_pressure;Samples;Min_cycle;Max_cycle;Signal;HPM_P1;HPM_P2
2022/04/04 00:02:20;;;;;;;7.50;4.75;;;4.40;67.90;;;;;;5076269;28;25071;-72
2022/04/04 00:04:46;;;;;;;8.00;4.55;;;4.40;67.80;;;;;;5070956;28;25066;-71
2022/04/04 00:07:11;;;;;;;6.70;4.88;;;4.40;67.30;;;;;;5062400;28;25070;-71
2022/04/04 00:09:37;;;;;;;6.68;4.45;;;4.40;67.50;;;;;;5076859;28;25096;-73
2022/04/04 00:12:02;;;;;;;7.60;4.68;;;4.40;67.40;;;;;;5077708;28;25095;-71
2022/04/04 00:14:28;;;;;;;6.82;4.82;;;4.40;67.10;;;;;;5082817;28;25097;-71
2022/04/04 00:16:55;;;;;;;7.30;6.20;;;4.40;67.20;;;;;;5072793;28;25069;-72
2022/04/04 00:19:22;;;;;;;9.52;4.10;;;4.40;67.50;;;;;;5073175;28;25142;-70
2022/04/04 00:21:48;;;;;;;9.23;5.03;;;4.40;67.60;;;;;;5070652;28;25072;-70
2022/04/04 00:24:14;;;;;;;9.35;5.28;;;4.40;67.80;;;;;;5072137;28;25100;-71
2022/04/04 00:26:40;;;;;;;8.50;4.63;;;4.40;67.90;;;;;;5073085;28;25081;-69
2022/04/04 00:29:05;;;;;;;6.20;4.78;;;4.40;68.00;;;;;;5070859;28;25064;-71
2022/04/04 00:31:31;;;;;;;8.98;4.50;;;4.40;68.20;;;;;;5070866;28;25108;-72
2022/04/04 00:33:56;;;;;;;6.60;4.30;;;4.30;68.50;;;;;;5066285;28;25070;-71
2022/04/04 00:36:22;;;;;;;12.10;5.57;;;4.30;68.60;;;;;;5070228;28;25068;-72
2022/04/04 00:38:47;;;;;;;5.38;4.38;;;4.40;68.50;;;;;;5069473;28;25067;-72
2022/04/04 00:41:15;;;;;;;7.05;5.13;;;4.30;68.60;;;;;;5070636;28;25056;-71
2022/04/04 00:43:41;;;;;;;8.13;5.30;;;4.40;69.00;;;;;;5064386;28;25088;-72
2022/04/04 00:46:08;;;;;;;7.70;5.00;;;4.30;69.00;;;;;;5082260;28;24974;-72
2022/04/04 00:48:34;;;;;;;11.32;5.45;;;4.30;69.10;;;;;;5070301;28;25056;-72
2022/04/04 00:51:01;;;;;;;12.20;5.43;;;4.30;69.00;;;;;;5069960;28;25074;-71
2022/04/04 00:53:27;;;;;;;7.47;5.07;;;4.30;69.40;;;;;;5069388;28;25081;-71
2022/04/04 00:55:54;;;;;;;8.63;5.05;;;4.30;69.30;;;;;;5052092;28;25053;-71
2022/04/04 00:58:20;;;;;;;8.10;5.25;;;4.40;69.10;;;;;;5070745;28;25137;-71
2022/04/04 01:00:48;;;;;;;11.70;5.72;;;4.40;69.10;;;;;;5078861;28;25052;-72
2022/04/04 01:03:14;;;;;;;10.15;6.32;;;4.40;69.30;;;;;;5092912;28;25098;-71
2022/04/04 01:05:40;;;;;;;7.95;5.13;;;4.40;69.10;;;;;;5080805;28;25068;-73
2022/04/04 01:08:05;;;;;;;9.32;5.50;;;4.40;69.30;;;;;;5074070;28;25080;-71
2022/04/04 01:10:31;;;;;;;12.68;5.55;;;4.40;69.40;;;;;;5075168;28;25103;-72
2022/04/04 01:12:57;;;;;;;7.80;5.53;;;4.40;69.30;;;;;;5071414;28;25065;-71
2022/04/04 01:15:25;;;;;;;8.95;5.97;;;4.40;69.30;;;;;;5073567;28;25080;-72
2022/04/04 01:17:51;;;;;;;9.55;6.30;;;4.40;69.40;;;;;;5078298;28;25056;-72
2022/04/04 01:20:17;;;;;;;11.70;7.05;;;4.40;69.20;;;;;;5069314;28;25065;-72
2022/04/04 01:22:47;;;;;;;12.30;7.40;;;4.40;69.10;;;;;;5068394;28;25049;-72
2022/04/04 01:25:14;;;;;;;9.80;6.38;;;4.40;68.80;;;;;;5068202;28;25065;-72
2022/04/04 01:27:39;;;;;;;13.68;8.05;;;4.40;69.10;;;;;;5068342;28;25076;-70
2022/04/04 01:30:07;;;;;;;12.43;7.50;;;4.40;68.90;;;;;;5068304;28;25077;-72
2022/04/04 01:32:34;;;;;;;14.88;7.30;;;4.40;68.90;;;;;;5064867;28;25108;-73
2022/04/04 01:35:00;;;;;;;12.05;7.47;;;4.40;68.70;;;;;;5068372;28;25101;-72
2022/04/04 01:37:26;;;;;;;15.52;7.72;;;4.40;68.80;;;;;;5067971;28;25148;-72
2022/04/04 01:39:51;;;;;;;12.63;7.22;;;4.40;69.00;;;;;;5046607;28;25049;-72
2022/04/04 01:42:17;;;;;;;14.00;7.40;;;4.40;69.00;;;;;;5056532;28;25078;-71
2022/04/04 01:44:42;;;;;;;14.68;7.40;;;4.40;68.50;;;;;;5066211;28;25057;-72
2022/04/04 01:47:10;;;;;;;10.15;7.50;;;4.40;68.50;;;;;;5064793;28;25054;-72
2022/04/04 01:49:35;;;;;;;10.27;7.60;;;4.50;68.60;;;;;;5049528;28;25076;-71
2022/04/04 01:52:01;;;;;;;13.25;7.75;;;4.50;68.60;;;;;;5067520;28;25088;-72
2022/04/04 01:54:26;;;;;;;15.38;7.20;;;4.50;68.90;;;;;;5066092;28;25060;-73
2022/04/04 01:56:52;;;;;;;9.05;6.75;;;4.50;68.90;;;;;;5067917;28;25052;-70
2022/04/04 01:59:17;;;;;;;14.68;6.85;;;4.50;68.70;;;;;;5068074;28;25075;-72
2022/04/04 02:01:44;;;;;;;15.00;7.28;;;4.60;68.80;;;;;;5068491;28;25175;-72
2022/04/04 02:04:11;;;;;;;11.70;6.45;;;4.60;68.70;;;;;;5067530;28;25072;-73
2022/04/04 02:06:37;;;;;;;11.73;5.88;;;4.60;68.90;;;;;;5058406;28;24963;-72
2022/04/04 02:09:03;;;;;;;10.45;6.20;;;4.60;68.80;;;;;;5055718;28;25070;-71
2022/04/04 02:11:29;;;;;;;10.07;5.95;;;4.60;69.00;;;;;;5055329;28;25148;-70
2022/04/04 02:13:55;;;;;;;13.07;6.55;;;4.60;69.00;;;;;;5060523;28;25157;-73
2022/04/04 02:16:20;;;;;;;9.15;5.38;;;4.60;68.90;;;;;;5062249;28;25088;-69
2022/04/04 02:18:46;;;;;;;10.20;5.35;;;4.60;68.90;;;;;;5051282;28;25051;-73
2022/04/04 02:21:12;;;;;;;11.32;5.78;;;4.70;69.00;;;;;;5068210;28;25155;-70
2022/04/04 02:23:38;;;;;;;9.25;5.97;;;4.60;69.10;;;;;;5061543;28;25080;-72
2022/04/04 02:26:04;;;;;;;8.80;5.18;;;4.70;68.90;;;;;;5071994;28;25059;-71
2022/04/04 02:28:30;;;;;;;8.45;4.70;;;4.70;68.60;;;;;;5072292;28;25126;-72
2022/04/04 02:30:56;;;;;;;12.27;5.57;;;4.70;68.40;;;;;;5068818;28;25063;-71
2022/04/04 02:33:23;;;;;;;9.50;5.25;;;4.70;68.40;;;;;;5064950;28;25138;-73
2022/04/04 02:35:50;;;;;;;11.80;5.60;;;4.60;68.70;;;;;;5074261;28;25075;-72
2022/04/04 02:38:17;;;;;;;8.95;5.70;;;4.60;68.60;;;;;;5084720;28;25129;-73
2022/04/04 02:40:44;;;;;;;13.60;5.55;;;4.60;68.50;;;;;;5076676;28;25080;-72
2022/04/04 02:43:09;;;;;;;10.93;5.60;;;4.60;68.50;;;;;;5058010;28;25086;-71
2022/04/04 02:45:36;;;;;;;15.35;5.20;;;4.70;68.30;;;;;;5075085;28;25085;-71
2022/04/04 02:48:02;;;;;;;11.68;5.82;;;4.70;68.00;;;;;;5075552;28;25063;-72
2022/04/04 02:50:28;;;;;;;10.02;5.90;;;4.70;68.00;;;;;;5074398;28;25123;-72
2022/04/04 02:52:54;;;;;;;10.57;6.07;;;4.70;68.20;;;;;;5057281;28;25049;-71
2022/04/04 02:58:05;;;;;;;11.20;5.80;;;4.80;67.70;;;;;;5054440;28;25075;-71
2022/04/04 03:00:30;;;;;;;11.95;5.40;;;4.90;67.30;;;;;;5067701;28;25066;-72
2022/04/04 03:02:57;;;;;;;12.95;6.20;;;4.80;66.90;;;;;;5072449;28;25071;-70
2022/04/04 03:05:23;;;;;;;11.20;6.38;;;4.80;66.90;;;;;;5073746;28;25073;-72
2022/04/04 03:07:49;;;;;;;13.80;5.65;;;4.80;67.00;;;;;;5075069;28;25082;-72
2022/04/04 03:10:15;;;;;;;9.10;5.82;;;4.90;67.10;;;;;;5074684;28;25083;-70
2022/04/04 03:12:49;;;;;;;12.50;5.55;;;4.80;67.10;;;;;;5056474;28;25164;-71
2022/04/04 03:15:21;;;;;;;11.00;6.30;;;4.80;67.20;;;;;;5069878;28;25065;-71
2022/04/04 03:17:48;;;;;;;7.45;5.80;;;4.80;67.60;;;;;;5073463;28;25081;-71
2022/04/04 03:20:16;;;;;;;12.63;5.50;;;4.80;67.50;;;;;;5077210;28;25055;-70
2022/04/04 03:22:43;;;;;;;10.15;5.93;;;4.90;67.30;;;;;;5094063;28;25060;-72
2022/04/04 03:25:10;;;;;;;10.18;6.68;;;4.90;67.20;;;;;;5090635;28;25060;-72
2022/04/04 03:27:37;;;;;;;12.80;6.65;;;4.90;67.30;;;;;;5085264;28;25120;-70
2022/04/04 03:30:08;;;;;;;9.93;6.00;;;4.80;67.70;;;;;;5077147;28;25053;-71
2022/04/04 03:32:34;;;;;;;10.82;6.80;;;4.80;68.40;;;;;;5080617;28;25053;-72
2022/04/04 03:35:00;;;;;;;9.50;6.78;;;4.80;68.70;;;;;;5093034;28;25065;-71
2022/04/04 03:37:27;;;;;;;10.10;6.35;;;4.80;68.90;;;;;;5096043;28;25062;-71
2022/04/04 03:39:53;;;;;;;13.43;6.13;;;4.80;69.00;;;;;;5087625;28;25077;-72
2022/04/04 03:42:19;;;;;;;11.10;6.57;;;4.80;69.00;;;;;;5073568;28;25160;-71
2022/04/04 03:44:45;;;;;;;14.07;7.35;;;4.80;69.00;;;;;;5072914;28;25140;-73
2022/04/04 03:47:11;;;;;;;9.82;6.97;;;4.80;68.80;;;;;;5073157;28;25073;-70
2022/04/04 03:49:37;;;;;;;12.32;7.50;;;4.80;69.00;;;;;;5073208;28;25123;-71
2022/04/04 03:52:04;;;;;;;10.48;6.72;;;4.80;68.90;;;;;;5055707;28;25063;-71
2022/04/04 03:54:30;;;;;;;11.20;7.80;;;4.80;69.20;;;;;;5072557;28;25063;-72
2022/04/04 03:56:57;;;;;;;13.70;7.43;;;4.80;69.50;;;;;;5073520;28;25064;-72
2022/04/04 03:59:23;;;;;;;13.43;8.32;;;4.90;69.50;;;;;;5073463;28;25089;-71
2022/04/04 04:01:48;;;;;;;15.07;7.72;;;4.90;69.50;;;;;;5073269;28;25094;-72
2022/04/04 04:04:14;;;;;;;15.82;7.90;;;4.90;69.40;;;;;;5073951;28;25142;-71
2022/04/04 04:06:39;;;;;;;10.63;7.53;;;4.90;69.50;;;;;;5074188;28;25052;-72
2022/04/04 04:09:05;;;;;;;16.00;8.27;;;4.90;69.50;;;;;;5073474;28;25083;-73
2022/04/04 04:11:30;;;;;;;18.00;7.95;;;4.90;69.60;;;;;;5073777;28;25047;-72
2022/04/04 04:13:56;;;;;;;14.57;8.05;;;4.90;69.70;;;;;;5059018;28;25140;-72
2022/04/04 04:16:23;;;;;;;12.32;7.82;;;4.90;69.80;;;;;;5067724;28;25117;-72
2022/04/04 04:18:49;;;;;;;14.55;7.57;;;4.90;69.90;;;;;;5070228;28;25063;-72
2022/04/04 04:21:15;;;;;;;13.38;8.10;;;4.90;69.80;;;;;;5070089;28;25098;-73
2022/04/04 04:23:43;;;;;;;15.38;7.95;;;4.90;69.90;;;;;;5070379;28;25100;-72
2022/04/04 04:26:11;;;;;;;13.85;8.43;;;4.90;69.40;;;;;;5068917;28;25138;-71
2022/04/04 04:28:37;;;;;;;15.57;8.38;;;5.00;69.40;;;;;;5071963;28;25054;-74
2022/04/04 04:31:03;;;;;;;13.68;8.02;;;5.00;69.00;;;;;;5087342;28;25060;-71
2022/04/04 04:33:29;;;;;;;16.98;8.40;;;5.00;68.80;;;;;;5074327;28;25078;-73
2022/04/04 04:35:55;;;;;;;18.88;8.93;;;5.10;68.50;;;;;;5084638;28;25076;-72
2022/04/04 04:38:20;;;;;;;21.52;9.57;;;5.10;68.10;;;;;;5077923;28;25090;-72
2022/04/04 04:40:46;;;;;;;14.27;7.95;;;5.10;68.10;;;;;;5080081;28;25054;-72
2022/04/04 04:43:11;;;;;;;14.45;8.27;;;5.10;67.90;;;;;;5076951;28;25054;-73
2022/04/04 04:45:37;;;;;;;16.80;8.52;;;5.10;67.60;;;;;;5088896;28;25075;-70
2022/04/04 04:48:03;;;;;;;14.18;8.52;;;5.10;67.60;;;;;;5066484;28;25043;-73
2022/04/04 04:50:29;;;;;;;18.58;8.75;;;5.20;67.30;;;;;;5078521;28;25128;-73
2022/04/04 04:52:56;;;;;;;17.52;9.38;;;5.20;67.10;;;;;;5077952;28;25085;-71
2022/04/04 04:55:23;;;;;;;15.13;8.50;;;5.20;67.10;;;;;;5070847;28;24690;-72
2022/04/04 04:57:49;;;;;;;13.52;8.00;;;5.20;66.70;;;;;;5073951;28;25064;-70
2022/04/04 05:00:17;;;;;;;12.75;8.60;;;5.20;66.40;;;;;;5081234;28;25176;-72
2022/04/04 05:02:43;;;;;;;17.38;8.63;;;5.20;66.40;;;;;;5083093;28;25076;-74
2022/04/04 05:05:10;;;;;;;13.38;8.90;;;5.30;66.30;;;;;;5054325;28;25053;-72
2022/04/04 05:07:35;;;;;;;16.85;10.15;;;5.20;66.30;;;;;;5057097;28;25059;-74
2022/04/04 05:10:02;;;;;;;13.07;9.07;;;5.20;66.20;;;;;;5063516;28;25062;-73
2022/04/04 05:12:28;;;;;;;15.55;8.60;;;5.30;66.20;;;;;;5058301;28;25074;-74
2022/04/04 05:14:53;;;;;;;16.05;9.38;;;5.30;65.90;;;;;;5059118;28;25067;-70
2022/04/04 05:17:19;;;;;;;15.35;8.25;;;5.30;65.90;;;;;;5061044;28;25105;-73
2022/04/04 05:19:44;;;;;;;15.18;9.40;;;5.30;65.70;;;;;;5060838;28;25151;-75
2022/04/04 05:22:10;;;;;;;14.50;8.40;;;5.40;65.70;;;;;;5061939;28;25089;-72
2022/04/04 05:24:36;;;;;;;13.80;8.52;;;5.40;65.40;;;;;;5061843;28;25091;-73
2022/04/04 05:27:02;;;;;;;15.32;9.15;;;5.40;64.90;;;;;;5054143;28;25092;-72
2022/04/04 05:29:28;;;;;;;18.05;10.32;;;5.40;64.80;;;;;;5071489;28;25077;-73
2022/04/04 05:31:55;;;;;;;16.20;9.15;;;5.50;65.30;;;;;;5067122;28;25058;-75
2022/04/04 05:34:21;;;;;;;14.70;8.90;;;5.40;64.70;;;;;;5054504;28;25071;-71
2022/04/04 05:36:48;;;;;;;13.85;8.65;;;5.50;64.40;;;;;;5069436;28;25065;-70
2022/04/04 05:39:14;;;;;;;15.75;9.60;;;5.60;64.20;;;;;;5078847;28;25108;-70
2022/04/04 05:41:40;;;;;;;12.68;9.30;;;5.60;64.10;;;;;;5072978;28;25078;-71
2022/04/04 05:44:06;;;;;;;15.80;9.32;;;5.60;63.80;;;;;;5076160;28;25115;-71
2022/04/04 05:46:33;;;;;;;13.40;9.38;;;5.60;63.80;;;;;;5065414;28;25063;-73
2022/04/04 05:49:00;;;;;;;16.30;9.43;;;5.70;63.60;;;;;;5065742;28;25054;-72
2022/04/04 05:51:28;;;;;;;17.58;9.60;;;5.70;63.30;;;;;;5075438;28;25060;-74
2022/04/04 05:53:54;;;;;;;15.00;9.48;;;5.80;63.10;;;;;;5079719;28;25068;-74
2022/04/04 05:56:21;;;;;;;19.02;10.38;;;5.80;62.90;;;;;;5078806;28;25084;-73
2022/04/04 05:58:48;;;;;;;17.92;10.25;;;5.90;62.70;;;;;;5064333;28;25076;-72
2022/04/04 06:01:13;;;;;;;11.85;8.80;;;5.90;62.50;;;;;;5059937;28;25103;-73
2022/04/04 06:03:39;;;;;;;16.67;9.40;;;6.00;62.20;;;;;;5042822;28;25075;-71
2022/04/04 06:06:04;;;;;;;21.08;10.15;;;6.00;61.80;;;;;;5045993;28;25114;-73
2022/04/04 06:08:30;;;;;;;15.88;8.88;;;6.10;61.60;;;;;;5061267;28;25115;-74
2022/04/04 06:10:56;;;;;;;14.40;9.70;;;6.10;61.30;;;;;;5061255;28;25155;-76
2022/04/04 06:13:21;;;;;;;15.38;9.02;;;6.10;61.50;;;;;;5055636;28;25084;-75
2022/04/04 06:15:47;;;;;;;16.48;9.38;;;6.10;61.60;;;;;;5053711;28;25141;-74
2022/04/04 06:18:13;;;;;;;16.83;9.43;;;6.20;61.70;;;;;;5059791;28;25160;-77
2022/04/04 06:20:39;;;;;;;16.73;9.52;;;6.20;61.60;;;;;;5055022;28;25090;-75
2022/04/04 06:23:06;;;;;;;13.32;9.50;;;6.30;61.50;;;;;;5054919;28;25051;-73
2022/04/04 06:25:32;;;;;;;15.88;10.10;;;6.30;61.40;;;;;;5058640;28;25064;-75
2022/04/04 06:27:58;;;;;;;16.35;9.55;;;6.30;61.40;;;;;;5056694;28;25113;-77
2022/04/04 06:30:25;;;;;;;12.93;9.55;;;6.40;61.70;;;;;;5039476;28;25132;-76
2022/04/04 06:32:50;;;;;;;18.25;9.63;;;6.40;62.10;;;;;;5067337;28;25068;-74
2022/04/04 06:35:16;;;;;;;20.20;10.05;;;6.40;62.40;;;;;;5062764;28;25067;-78
2022/04/04 06:37:43;;;;;;;22.60;13.52;;;6.30;62.90;;;;;;5039943;28;25117;-76
2022/04/04 06:40:10;;;;;;;18.33;9.93;;;6.40;63.40;;;;;;5060789;28;25070;-76
2022/04/04 06:42:37;;;;;;;17.10;9.55;;;6.40;64.00;;;;;;5064478;28;25099;-74
2022/04/04 06:45:04;;;;;;;17.85;9.90;;;6.40;65.20;;;;;;5055596;28;25085;-78
2022/04/04 06:47:30;;;;;;;20.55;9.02;;;6.30;65.50;;;;;;5069110;28;25057;-76
2022/04/04 06:49:57;;;;;;;17.23;9.90;;;6.30;65.80;;;;;;5064705;28;25095;-77
2022/04/04 06:52:23;;;;;;;16.58;9.77;;;6.30;66.10;;;;;;5071831;28;25137;-72
2022/04/04 06:54:48;;;;;;;17.67;10.27;;;6.40;66.80;;;;;;5071805;28;25068;-76
2022/04/04 06:57:15;;;;;;;14.98;9.63;;;6.40;66.70;;;;;;5062129;28;25086;-74
2022/04/04 06:59:42;;;;;;;15.75;9.35;;;6.40;66.20;;;;;;5070610;28;25073;-74
2022/04/04 07:02:08;;;;;;;14.77;9.93;;;6.40;66.10;;;;;;5068603;28;25054;-74
2022/04/04 07:04:34;;;;;;;14.07;10.13;;;6.40;66.20;;;;;;5067096;28;25096;-76
2022/04/04 07:07:00;;;;;;;13.57;8.77;;;6.50;65.50;;;;;;5065443;28;25102;-73
2022/04/04 07:09:26;;;;;;;18.35;9.00;;;6.50;64.70;;;;;;5061549;28;25098;-75
2022/04/04 07:11:51;;;;;;;13.82;8.90;;;6.50;64.30;;;;;;5084886;28;25064;-77
2022/04/04 07:14:18;;;;;;;15.43;8.98;;;6.60;63.70;;;;;;5089620;28;25082;-73
2022/04/04 07:16:44;;;;;;;11.50;8.80;;;6.60;63.00;;;;;;5053158;28;25077;-73
2022/04/04 07:19:14;;;;;;;14.52;7.80;;;6.60;61.70;;;;;;5074129;28;25077;-75
2022/04/04 07:21:39;;;;;;;16.45;9.45;;;6.70;61.00;;;;;;5073823;28;25069;-76
2022/04/04 07:24:05;;;;;;;18.88;8.63;;;6.80;60.40;;;;;;5073738;28;25065;-73
2022/04/04 07:26:31;;;;;;;15.63;7.70;;;6.80;59.50;;;;;;5073335;28;25071;-73
2022/04/04 07:28:57;;;;;;;13.73;8.52;;;6.90;59.60;;;;;;5086726;28;25061;-72
2022/04/04 07:31:23;;;;;;;15.02;8.65;;;6.90;59.70;;;;;;5086487;28;25091;-75
2022/04/04 07:33:48;;;;;;;18.88;9.15;;;6.90;60.10;;;;;;5077896;28;25086;-76
2022/04/04 07:36:14;;;;;;;17.23;9.45;;;6.90;60.90;;;;;;5056901;28;25063;-75
2022/04/04 07:38:40;;;;;;;15.50;8.88;;;6.90;61.60;;;;;;5080780;28;25086;-77
2022/04/04 07:41:05;;;;;;;16.88;9.25;;;6.80;62.60;;;;;;5077139;28;25074;-73
2022/04/04 07:43:31;;;;;;;17.70;9.13;;;6.80;63.20;;;;;;5074941;28;25079;-73
2022/04/04 07:45:57;;;;;;;21.08;10.15;;;6.80;64.50;;;;;;5077042;28;25058;-76
2022/04/04 07:48:23;;;;;;;16.83;10.18;;;6.70;65.90;;;;;;5086767;28;25103;-73
2022/04/04 07:50:48;;;;;;;16.45;10.80;;;6.60;67.70;;;;;;5072904;28;25114;-74
2022/04/04 07:53:14;;;;;;;19.70;11.77;;;6.60;70.40;;;;;;5078439;28;25074;-73
2022/04/04 07:55:40;;;;;;;19.85;12.15;;;6.50;72.10;;;;;;5084240;28;25075;-73
2022/04/04 07:58:06;;;;;;;20.98;11.63;;;6.40;74.60;;;;;;5061559;28;25077;-72
2022/04/04 08:00:31;;;;;;;26.00;13.15;;;6.30;76.80;;;;;;5086012;28;25124;-73
2022/04/04 08:02:57;;;;;;;22.83;12.93;;;6.30;78.50;;;;;;5081883;28;25079;-75
2022/04/04 08:05:23;;;;;;;17.80;12.68;;;6.20;80.40;;;;;;5082059;28;25085;-75
2022/04/04 08:07:51;;;;;;;19.75;13.20;;;6.10;81.30;;;;;;5081061;28;25057;-73
2022/04/04 08:10:18;;;;;;;21.90;13.25;;;6.10;82.90;;;;;;5088747;28;25068;-74
2022/04/04 08:12:44;;;;;;;25.77;14.35;;;6.10;84.00;;;;;;5083343;28;25074;-73
2022/04/04 08:15:10;;;;;;;21.50;13.90;;;6.10;85.10;;;;;;5077321;28;25101;-75
2022/04/04 08:17:37;;;;;;;21.35;14.07;;;6.00;86.60;;;;;;5080370;28;25071;-74
2022/04/04 08:20:03;;;;;;;24.05;15.45;;;6.00;88.20;;;;;;5058040;28;25088;-75
2022/04/04 08:22:29;;;;;;;23.77;14.85;;;5.90;90.10;;;;;;5091060;28;25057;-76
2022/04/04 08:24:54;;;;;;;23.33;16.02;;;6.00;91.10;;;;;;5078679;28;25063;-73
2022/04/04 08:27:22;;;;;;;22.67;14.68;;;6.00;91.90;;;;;;5068227;28;25072;-73
2022/04/04 08:29:48;;;;;;;26.77;16.05;;;6.00;92.50;;;;;;5078776;28;25070;-73
2022/04/04 08:32:13;;;;;;;29.27;16.42;;;6.00;93.00;;;;;;5075395;28;25089;-73
2022/04/04 08:34:39;;;;;;;23.48;15.52;;;6.10;93.30;;;;;;5072525;28;25054;-71
2022/04/04 08:37:05;;;;;;;24.08;13.70;;;6.10;93.80;;;;;;5054572;28;25066;-77
2022/04/04 08:39:31;;;;;;;20.17;13.00;;;6.00;93.80;;;;;;5063086;28;25100;-73
2022/04/04 08:41:57;;;;;;;23.05;12.18;;;6.10;94.20;;;;;;5054495;28;25055;-72
2022/04/04 08:44:24;;;;;;;25.33;14.40;;;6.00;94.30;;;;;;5070522;28;25064;-72
2022/04/04 08:46:51;;;;;;;29.83;14.95;;;6.10;94.90;;;;;;5053031;28;25150;-72
2022/04/04 08:49:17;;;;;;;22.40;14.27;;;6.00;95.20;;;;;;5070069;28;25061;-71
2022/04/04 08:51:43;;;;;;;26.17;14.90;;;6.00;95.40;;;;;;5054214;28;25076;-75
2022/04/04 08:54:08;;;;;;;27.60;15.73;;;6.00;96.00;;;;;;5052678;28;25074;-71
2022/04/04 08:56:34;;;;;;;26.85;14.82;;;6.00;96.30;;;;;;5069726;28;25056;-72
2022/04/04 08:59:00;;;;;;;30.08;14.40;;;5.90;97.00;;;;;;5052606;28;25067;-72
2022/04/04 09:01:27;;;;;;;18.35;13.90;;;5.90;97.50;;;;;;5057001;28;25068;-76
2022/04/04 09:04:14;;;;;;;21.23;15.68;;;5.90;97.80;;;;;;5068136;28;25148;-72
2022/04/04 09:06:48;;;;;;;29.02;16.85;;;5.90;98.10;;;;;;5063179;28;25107;-73
2022/04/04 09:09:20;;;;;;;23.13;16.35;;;5.90;98.70;;;;;;5062980;28;25104;-74
2022/04/04 09:11:50;;;;;;;;;;;5.90;98.60;;;;;;5069298;28;25060;-72
2022/04/04 09:14:21;;;;;;;27.60;17.63;;;5.90;98.80;;;;;;5053595;28;24080;-72
2022/04/04 09:16:56;;;;;;;26.15;15.85;;;5.90;99.30;;;;;;5060823;28;25072;-76
2022/04/04 09:19:48;;;;;;;22.83;15.10;;;6.00;99.10;;;;;;5089352;28;25065;-73
2022/04/04 09:22:16;;;;;;;27.08;15.40;;;6.00;99.50;;;;;;5066920;28;25073;-74
2022/04/04 09:24:45;;;;;;;25.27;15.40;;;5.90;99.60;;;;;;5050701;28;25077;-73
2022/04/04 09:27:13;;;;;;;33.60;16.85;;;5.90;99.90;;;;;;5069349;28;25073;-73
2022/04/04 09:29:42;;;;;;;23.83;16.45;;;5.90;99.90;;;;;;5073943;28;25069;-74
2022/04/04 09:32:14;;;;;;;30.45;18.27;;;5.90;99.90;;;;;;5060781;28;25064;-72
2022/04/04 09:34:54;;;;;;;27.60;18.52;;;5.90;99.90;;;;;;5060152;28;25070;-73
2022/04/04 09:37:21;;;;;;;29.65;19.80;;;5.90;99.90;;;;;;5058062;28;25075;-74
2022/04/04 09:40:00;;;;;;;26.20;19.02;;;5.90;99.90;;;;;;5060135;28;25145;-71
2022/04/04 09:42:28;;;;;;;30.02;21.10;;;5.90;99.90;;;;;;5060927;28;25089;-75
2022/04/04 09:45:09;;;;;;;28.63;20.20;;;6.10;99.90;;;;;;5050675;28;25140;-72
2022/04/04 09:48:01;;;;;;;29.42;20.38;;;6.00;99.90;;;;;;5042177;28;25053;-73
2022/04/04 09:50:49;;;;;;;25.80;19.52;;;6.10;99.90;;;;;;5070448;28;25059;-72
2022/04/04 09:53:21;;;;;;;20.23;15.85;;;6.10;99.90;;;;;;5070807;28;25061;-71
2022/04/04 09:55:48;;;;;;;24.42;19.15;;;6.10;99.90;;;;;;5075594;28;25100;-73
2022/04/04 09:58:16;;;;;;;21.48;15.48;;;6.20;99.90;;;;;;5069556;28;25127;-74
2022/04/04 10:00:46;;;;;;;30.15;18.48;;;6.10;99.90;;;;;;5057947;28;25078;-73
2022/04/04 10:03:13;;;;;;;29.45;18.17;;;6.20;99.90;;;;;;5059674;28;25074;-73
2022/04/04 10:05:47;;;;;;;21.73;14.80;;;6.30;99.90;;;;;;5055370;28;25137;-74
2022/04/04 10:08:15;;;;;;;19.65;14.35;;;6.20;99.90;;;;;;5045130;28;25054;-74
2022/04/04 10:10:43;;;;;;;18.85;14.43;;;6.20;99.90;;;;;;5058546;28;25073;-75
2022/04/04 10:13:11;;;;;;;20.55;14.13;;;6.20;99.90;;;;;;5056677;28;25080;-73
2022/04/04 10:15:37;;;;;;;21.05;14.55;;;6.20;99.90;;;;;;5044021;28;25052;-76
2022/04/04 10:18:03;;;;;;;24.73;13.02;;;6.30;99.90;;;;;;5060898;28;25117;-71
2022/04/04 10:20:29;;;;;;;20.60;13.02;;;6.30;99.90;;;;;;5069206;28;25134;-73
2022/04/04 10:22:56;;;;;;;24.42;14.40;;;6.30;99.90;;;;;;5061497;28;25102;-74
2022/04/04 10:25:28;;;;;;;24.20;14.73;;;6.30;99.90;;;;;;5064971;28;25130;-76
2022/04/04 10:27:55;;;;;;;18.60;12.23;;;6.30;99.90;;;;;;5055463;28;25075;-75
2022/04/04 10:30:34;;;;;;;19.30;13.13;;;6.40;99.90;;;;;;5071484;28;25070;-75
2022/04/04 10:33:01;;;;;;;16.30;12.52;;;6.30;99.90;;;;;;5079960;28;25065;-76
2022/04/04 10:35:29;;;;;;;20.88;13.35;;;6.30;99.90;;;;;;5070425;28;25073;-76
2022/04/04 10:38:03;;;;;;;18.85;12.68;;;6.40;99.90;;;;;;5076235;28;25060;-72
2022/04/04 10:40:31;;;;;;;21.50;13.48;;;6.40;99.90;;;;;;5074157;28;25076;-75
2022/04/04 10:43:15;;;;;;;18.60;12.73;;;6.40;99.90;;;;;;5069506;28;25053;-72
2022/04/04 10:45:54;;;;;;;19.52;13.00;;;6.40;99.90;;;;;;5072983;28;25139;-74
2022/04/04 10:48:28;;;;;;;19.40;12.30;;;6.50;99.90;;;;;;5069679;28;25105;-73
2022/04/04 10:50:53;;;;;;;17.92;12.50;;;6.50;99.90;;;;;;5067296;28;25082;-72
2022/04/04 10:53:48;;;;;;;18.20;12.25;;;6.40;99.90;;;;;;5055839;28;25065;-73
2022/04/04 10:56:19;;;;;;;20.50;13.80;;;6.60;99.90;;;;;;5052473;28;25050;-71
2022/04/04 10:58:44;;;;;;;19.33;12.32;;;6.50;99.90;;;;;;5059025;28;25145;-74
2022/04/04 11:01:20;;;;;;;20.55;12.30;;;6.60;99.90;;;;;;5067799;28;25067;-74
2022/04/04 11:03:51;;;;;;;22.20;12.82;;;6.60;99.90;;;;;;5068868;28;25052;-75
2022/04/04 11:09:12;;;;;;;15.43;11.30;;;6.60;99.90;;;;;;5054189;28;25068;-75
2022/04/04 11:12:15;;;;;;;19.45;13.15;;;6.70;99.90;;;;;;5051368;28;25070;-75
2022/04/04 11:14:42;;;;;;;;;;;6.70;99.90;;;;;;5070434;28;25129;-73
2022/04/04 11:17:17;;;;;;;18.80;13.43;;;6.70;99.90;;;;;;5070046;28;24070;-73
2022/04/04 11:19:53;;;;;;;16.67;11.60;;;6.80;99.90;;;;;;5052743;28;25062;-75
2022/04/04 11:22:26;;;;;;;23.52;13.95;;;6.80;99.90;;;;;;5069163;28;25067;-74
2022/04/04 11:24:51;;;;;;;18.55;12.95;;;6.80;99.90;;;;;;5072174;28;25054;-72
2022/04/04 11:27:18;;;;;;;18.17;10.43;;;6.80;99.90;;;;;;5073053;28;25115;-76
2022/04/04 11:29:44;;;;;;;17.08;12.13;;;6.80;99.90;;;;;;5072644;28;25084;-75
2022/04/04 11:32:16;;;;;;;16.40;12.13;;;6.80;99.90;;;;;;5070347;28;25159;-77
2022/04/04 11:34:42;;;;;;;16.33;13.55;;;6.80;99.90;;;;;;5056336;28;25168;-76
2022/04/04 11:37:17;;;;;;;17.60;12.70;;;6.90;99.90;;;;;;5052614;28;25073;-74
2022/04/04 11:39:45;;;;;;;17.50;13.63;;;6.90;99.90;;;;;;5033857;28;25129;-75
2022/04/04 11:42:11;;;;;;;16.38;13.38;;;6.90;99.90;;;;;;5050319;28;25072;-77
2022/04/04 11:44:45;;;;;;;15.48;13.68;;;7.00;99.90;;;;;;5050466;28;25080;-77
2022/04/04 11:47:11;;;;;;;17.67;13.55;;;7.00;99.90;;;;;;5059065;28;25075;-75
2022/04/04 11:49:39;;;;;;;16.00;12.68;;;7.00;99.90;;;;;;5070528;28;25063;-73
2022/04/04 11:52:07;;;;;;;18.05;13.82;;;7.10;99.90;;;;;;5073321;28;25127;-73
2022/04/04 11:54:40;;;;;;;17.67;14.65;;;7.10;99.90;;;;;;5055000;28;25083;-75
2022/04/04 11:57:06;;;;;;;19.42;15.52;;;7.10;99.90;;;;;;5040212;28;25091;-73
2022/04/04 11:59:36;;;;;;;19.25;14.85;;;7.10;99.90;;;;;;5063878;28;25073;-73
2022/04/04 12:02:08;;;;;;;19.25;15.50;;;7.20;99.90;;;;;;5056277;28;25063;-73
2022/04/04 12:04:38;;;;;;;19.07;16.40;;;7.20;99.90;;;;;;5067325;28;25073;-74
2022/04/04 12:07:05;;;;;;;20.80;16.38;;;7.20;99.90;;;;;;5045047;28;25133;-71
2022/04/04 12:09:35;;;;;;;16.77;13.15;;;7.20;99.90;;;;;;5057089;28;25082;-71
2022/04/04 12:12:04;;;;;;;20.33;15.55;;;7.30;99.90;;;;;;5059926;28;25064;-75
2022/04/04 12:14:37;;;;;;;16.67;14.55;;;7.40;99.90;;;;;;5054128;28;25148;-73
2022/04/04 12:17:04;;;;;;;18.00;14.52;;;7.40;99.90;;;;;;5057177;28;25079;-76
2022/04/04 12:19:31;;;;;;;18.25;15.00;;;7.40;99.90;;;;;;5039944;28;25122;-72
2022/04/04 12:21:57;;;;;;;16.67;13.85;;;7.40;99.90;;;;;;5057033;28;25107;-73
2022/04/04 12:27:12;;;;;;;19.10;14.85;;;7.50;99.90;;;;;;5056684;28;25057;-73
2022/04/04 12:29:43;;;;;;;17.23;15.02;;;7.60;99.90;;;;;;5071376;28;25073;-74
2022/04/04 12:32:19;;;;;;;19.60;14.15;;;7.50;99.90;;;;;;5064495;28;25164;-71
2022/04/04 12:35:02;;;;;;;17.55;13.98;;;7.60;99.90;;;;;;5054119;28;25050;-73
2022/04/04 12:37:42;;;;;;;14.43;12.82;;;7.60;99.90;;;;;;5057219;28;25131;-72
2022/04/04 12:40:19;;;;;;;14.85;10.40;;;7.60;99.90;;;;;;5063025;28;25060;-73
2022/04/04 12:42:47;;;;;;;14.05;11.18;;;7.70;99.90;;;;;;5054419;28;25115;-76
2022/04/04 12:45:14;;;;;;;13.50;11.15;;;7.70;99.90;;;;;;5057785;28;25193;-73
2022/04/04 12:48:14;;;;;;;11.57;9.98;;;7.70;99.90;;;;;;5058931;28;25140;-72
2022/04/04 12:50:47;;;;;;;9.35;8.40;;;7.70;99.90;;;;;;5061185;28;25054;-71
2022/04/04 12:53:14;;;;;;;11.55;8.88;;;7.80;99.90;;;;;;5050822;28;25063;-74
2022/04/04 12:55:43;;;;;;;14.82;7.38;;;7.80;99.90;;;;;;5037265;28;25161;-72
2022/04/04 12:58:22;;;;;;;8.02;5.63;;;7.80;99.90;;;;;;5063370;28;25075;-70